KIMT/IMT METAR and TAF weather

Enter ICAO airport designator
Station Type Date Time Source
KIMT METAR 2021/07/30 06:54 UTC NOAA

KIMT 300654Z AUTO 35004KT 10SM CLR 11/08 A3016 RMK AO2 SLP213 T01060083


Station Type Date Time Source
KIMT Decoded METAR 2021/07/30 06:54 UTC NOAA

IRON MOUNTAIN FORD AIRPORT, MI, United States (KIMT) 45-49N 88-07W 349M
Jul 30, 2021 - 02:54 AM EDT / 2021.07.30 0654 UTC
Wind: from the N (350 degrees) at 5 MPH (4 KT):0
Visibility: 10 mile(s):0
Sky conditions: clear
Temperature: 51.1 F (10.6 C)
Dew Point: 46.9 F (8.3 C)
Relative Humidity: 85%
Pressure (altimeter): 30.16 in. Hg (1021 hPa)
ob: KIMT 300654Z AUTO 35004KT 10SM CLR 11/08 A3016 RMK AO2 SLP213 T01060083
cycle: 7

Station Type Date Time Source
KIMT TAF UTC NOAA

Error!

Example: see airport list